Time;durP1;ratioP1;P1;durP2;ratioP2;P2;SDS_P1;SDS_P2;PMS_P1;PMS_P2;Temp;Humidity;BMP_temperature;BMP_pressure;BME280_temperature;BME280_humidity;BME280_pressure;Samples;Min_cycle;Max_cycle;Signal;HPM_P1;HPM_P2
2023/05/26 00:00:49;;;;;;;26.13;5.03;;;8.90;99.90;;;;;;5093317;28;20117;-62
2023/05/26 00:03:16;;;;;;;23.13;4.55;;;8.90;99.90;;;;;;5098683;28;20067;-62
2023/05/26 00:05:43;;;;;;;24.10;4.88;;;8.90;99.90;;;;;;5102634;28;20036;-62
2023/05/26 00:08:09;;;;;;;22.52;4.70;;;8.80;99.90;;;;;;5092803;28;20051;-62
2023/05/26 00:10:35;;;;;;;22.83;5.07;;;8.80;99.90;;;;;;5092573;28;20047;-62
2023/05/26 00:13:01;;;;;;;25.55;5.30;;;8.70;99.90;;;;;;5092260;28;20097;-62
2023/05/26 00:15:27;;;;;;;24.50;5.22;;;8.70;99.90;;;;;;5087307;28;20052;-63
2023/05/26 00:17:52;;;;;;;29.27;5.00;;;8.70;99.90;;;;;;5090378;28;20032;-62
2023/05/26 00:20:18;;;;;;;23.38;4.93;;;8.70;99.90;;;;;;5113196;28;20140;-62
2023/05/26 00:22:44;;;;;;;26.98;5.63;;;8.70;99.90;;;;;;5096718;28;20039;-63
2023/05/26 00:25:10;;;;;;;21.20;4.88;;;8.60;99.90;;;;;;5081946;28;20036;-62
2023/05/26 00:27:35;;;;;;;22.35;5.38;;;8.60;99.90;;;;;;5092241;28;20067;-62
2023/05/26 00:30:02;;;;;;;27.23;5.78;;;8.60;99.90;;;;;;5100058;28;20119;-62
2023/05/26 00:32:27;;;;;;;24.50;5.15;;;8.70;99.90;;;;;;5091904;28;20048;-62
2023/05/26 00:34:53;;;;;;;25.33;4.57;;;8.70;99.90;;;;;;5090965;28;20062;-63
2023/05/26 00:37:19;;;;;;;29.70;5.30;;;8.70;99.90;;;;;;5091435;28;20127;-62
2023/05/26 00:39:45;;;;;;;22.65;5.35;;;8.70;99.90;;;;;;5082719;28;20036;-62
2023/05/26 00:42:11;;;;;;;25.42;4.97;;;8.70;99.90;;;;;;5085819;28;20482;-62
2023/05/26 00:44:36;;;;;;;27.45;5.22;;;8.70;99.90;;;;;;5091264;28;20036;-62
2023/05/26 00:47:02;;;;;;;23.95;4.88;;;8.70;99.90;;;;;;5091405;28;20038;-62
2023/05/26 00:49:28;;;;;;;27.95;5.25;;;8.60;99.90;;;;;;5092378;28;20405;-62
2023/05/26 00:51:54;;;;;;;22.27;5.97;;;8.60;99.90;;;;;;5090651;28;20048;-62
2023/05/26 00:54:20;;;;;;;28.90;5.20;;;8.60;99.90;;;;;;5094824;28;20394;-62
2023/05/26 00:56:46;;;;;;;29.33;5.32;;;8.60;99.90;;;;;;5093788;28;20043;-62
2023/05/26 00:59:13;;;;;;;22.73;5.80;;;8.60;99.90;;;;;;5092232;28;20075;-62
2023/05/26 01:01:39;;;;;;;25.67;5.43;;;8.60;99.90;;;;;;5088914;28;20405;-62
2023/05/26 01:04:05;;;;;;;25.80;5.90;;;8.50;99.90;;;;;;5088313;28;20032;-62
2023/05/26 01:06:31;;;;;;;24.77;5.93;;;8.50;99.90;;;;;;5091418;28;20028;-62
2023/05/26 01:08:57;;;;;;;24.40;5.30;;;8.50;99.90;;;;;;5089501;28;20040;-62
2023/05/26 01:11:52;;;;;;;24.80;4.78;;;8.50;99.90;;;;;;5092560;28;20104;-62
2023/05/26 01:14:31;;;;;;;25.80;5.43;;;8.50;99.90;;;;;;5090047;28;20089;-62
2023/05/26 01:17:02;;;;;;;30.75;5.50;;;8.40;99.90;;;;;;5087576;28;20032;-62
2023/05/26 01:19:46;;;;;;;34.22;6.65;;;8.40;99.90;;;;;;5091212;28;20085;-62
2023/05/26 01:22:24;;;;;;;29.95;5.50;;;8.30;99.90;;;;;;5092028;28;20046;-62
2023/05/26 01:25:41;;;;;;;24.77;5.53;;;8.30;99.90;;;;;;5089666;28;20500;-62
2023/05/26 01:28:17;;;;;;;27.65;5.68;;;8.30;99.90;;;;;;5070311;28;20417;-62
2023/05/26 01:30:44;;;;;;;22.55;5.43;;;8.30;99.90;;;;;;5103285;28;20427;-62
2023/05/26 01:33:10;;;;;;;26.15;4.57;;;8.20;99.90;;;;;;5091493;28;20043;-62
2023/05/26 01:35:36;;;;;;;27.38;5.20;;;8.20;99.90;;;;;;5090295;28;20431;-62
2023/05/26 01:38:03;;;;;;;25.58;5.78;;;8.20;99.90;;;;;;5091691;28;20032;-62
2023/05/26 01:40:29;;;;;;;21.83;4.95;;;8.20;99.90;;;;;;5094670;28;20386;-62
2023/05/26 01:42:54;;;;;;;24.65;4.88;;;8.20;99.90;;;;;;5096522;28;20031;-62
2023/05/26 01:45:23;;;;;;;23.73;4.80;;;8.20;99.90;;;;;;5086327;28;20036;-62
2023/05/26 01:47:53;;;;;;;28.95;5.38;;;8.20;99.90;;;;;;5087275;28;20044;-62
2023/05/26 01:50:22;;;;;;;27.13;4.85;;;8.20;99.90;;;;;;5089815;28;20059;-62
2023/05/26 01:52:51;;;;;;;27.70;5.80;;;8.10;99.90;;;;;;5090535;28;20048;-61
2023/05/26 01:55:20;;;;;;;21.08;5.18;;;8.10;99.90;;;;;;5085569;28;20059;-62
2023/05/26 01:57:46;;;;;;;21.77;4.68;;;8.10;99.90;;;;;;5090528;28;20047;-62
2023/05/26 02:00:12;;;;;;;27.52;5.28;;;8.10;99.90;;;;;;5092716;28;20040;-62
2023/05/26 02:02:38;;;;;;;25.00;5.65;;;8.10;99.90;;;;;;5080649;28;20041;-62
2023/05/26 02:05:04;;;;;;;27.15;5.55;;;8.10;99.90;;;;;;5091477;28;20032;-61
2023/05/26 02:07:29;;;;;;;23.90;5.40;;;8.10;99.90;;;;;;5092922;28;20479;-62
2023/05/26 02:09:55;;;;;;;23.17;4.90;;;8.10;99.90;;;;;;5094920;28;20056;-62
2023/05/26 02:12:21;;;;;;;18.60;5.18;;;8.10;99.90;;;;;;5093549;28;20051;-62
2023/05/26 02:14:46;;;;;;;32.63;5.82;;;8.10;99.90;;;;;;5094900;28;20076;-62
2023/05/26 02:17:13;;;;;;;28.85;5.65;;;8.10;99.90;;;;;;5093415;28;20417;-62
2023/05/26 02:19:40;;;;;;;29.38;5.88;;;8.00;99.90;;;;;;5092947;28;20040;-62
2023/05/26 02:22:06;;;;;;;27.30;5.45;;;8.00;99.90;;;;;;5094399;28;20111;-62
2023/05/26 02:24:32;;;;;;;27.50;5.38;;;8.00;99.90;;;;;;5094309;28;20107;-62
2023/05/26 02:29:31;;;;;;;21.13;4.85;;;7.80;99.90;;;;;;5047419;28;20056;-64
2023/05/26 02:31:57;;;;;;;22.05;4.82;;;7.80;99.90;;;;;;5045430;28;20033;-64
2023/05/26 02:34:22;;;;;;;20.38;5.82;;;7.80;99.90;;;;;;5053584;28;20041;-64
2023/05/26 02:36:49;;;;;;;22.10;4.85;;;7.70;99.90;;;;;;5052801;28;20437;-64
2023/05/26 02:39:16;;;;;;;25.95;5.32;;;7.70;99.90;;;;;;5042476;28;20103;-64
2023/05/26 02:41:41;;;;;;;27.45;5.50;;;7.70;99.90;;;;;;5039457;28;20061;-64
2023/05/26 02:44:07;;;;;;;25.73;4.88;;;7.60;99.90;;;;;;5051610;28;20063;-64
2023/05/26 02:46:32;;;;;;;23.20;5.78;;;7.60;99.90;;;;;;5057345;28;20049;-64
2023/05/26 02:49:00;;;;;;;28.60;6.20;;;7.60;99.90;;;;;;5044420;28;20033;-64
2023/05/26 02:51:26;;;;;;;27.42;5.93;;;7.60;99.90;;;;;;5049885;28;20036;-64
2023/05/26 02:53:52;;;;;;;24.42;5.90;;;7.50;99.90;;;;;;5073821;28;20033;-64
2023/05/26 02:56:17;;;;;;;25.67;5.63;;;7.50;99.90;;;;;;5063769;28;20045;-64
2023/05/26 02:58:43;;;;;;;24.75;5.85;;;7.50;99.90;;;;;;5053068;28;20037;-64
2023/05/26 03:01:09;;;;;;;23.55;4.97;;;7.50;99.90;;;;;;5045454;28;20098;-64
2023/05/26 03:03:35;;;;;;;27.48;6.00;;;7.40;99.90;;;;;;5053769;28;20052;-64
2023/05/26 03:06:02;;;;;;;23.38;5.50;;;7.40;99.90;;;;;;5057153;28;20036;-64
2023/05/26 03:08:28;;;;;;;21.25;5.07;;;7.30;99.90;;;;;;5066943;28;20071;-64
2023/05/26 03:10:53;;;;;;;19.63;5.05;;;7.30;99.90;;;;;;5046338;28;20126;-64
2023/05/26 03:13:19;;;;;;;20.05;4.60;;;7.30;99.90;;;;;;5057418;28;20529;-64
2023/05/26 03:15:47;;;;;;;26.33;6.20;;;7.30;99.90;;;;;;5053378;28;20045;-65
2023/05/26 03:18:13;;;;;;;27.85;6.18;;;7.30;99.90;;;;;;5060376;28;20410;-64
2023/05/26 03:20:39;;;;;;;26.08;5.63;;;7.20;99.90;;;;;;5046628;28;20113;-64
2023/05/26 03:23:05;;;;;;;24.67;5.30;;;7.20;99.90;;;;;;5037167;28;20113;-64
2023/05/26 03:25:31;;;;;;;23.27;5.43;;;7.20;99.90;;;;;;5045035;28;20040;-64
2023/05/26 03:27:57;;;;;;;20.40;5.30;;;7.10;99.90;;;;;;5054720;28;20040;-64
2023/05/26 03:30:22;;;;;;;21.63;5.22;;;7.10;99.90;;;;;;5062835;28;20037;-64
2023/05/26 03:32:48;;;;;;;20.73;5.22;;;7.20;99.90;;;;;;5049966;28;20116;-64
2023/05/26 03:35:13;;;;;;;22.33;5.43;;;7.20;99.90;;;;;;5052658;28;20049;-65
2023/05/26 03:37:39;;;;;;;22.65;5.60;;;7.10;99.90;;;;;;5058446;28;20064;-64
2023/05/26 03:40:05;;;;;;;20.60;5.47;;;7.10;99.90;;;;;;5054118;28;20490;-64
2023/05/26 03:42:31;;;;;;;21.10;5.13;;;7.10;99.90;;;;;;5070998;28;20123;-64
2023/05/26 03:44:57;;;;;;;20.88;4.95;;;7.10;99.90;;;;;;5037608;28;20061;-65
2023/05/26 03:47:22;;;;;;;22.92;5.20;;;7.10;99.90;;;;;;5044525;28;20116;-65
2023/05/26 03:49:48;;;;;;;21.75;5.07;;;7.10;99.90;;;;;;5045018;28;20553;-64
2023/05/26 03:52:13;;;;;;;21.33;5.05;;;7.10;99.90;;;;;;5047459;28;20037;-65
2023/05/26 03:54:39;;;;;;;26.85;5.10;;;7.10;99.90;;;;;;5037390;28;20067;-64
2023/05/26 03:57:05;;;;;;;21.67;5.88;;;7.10;99.90;;;;;;5053495;28;20106;-64
2023/05/26 03:59:31;;;;;;;23.80;5.60;;;7.10;99.90;;;;;;5061273;28;20049;-64
2023/05/26 04:01:57;;;;;;;24.77;5.38;;;7.00;99.90;;;;;;5051495;28;20483;-64
2023/05/26 04:04:23;;;;;;;24.63;5.28;;;7.10;99.90;;;;;;5058576;28;20033;-65
2023/05/26 04:06:49;;;;;;;22.92;5.90;;;7.00;99.90;;;;;;5053417;28;20033;-64
2023/05/26 04:09:14;;;;;;;23.02;5.30;;;7.00;99.90;;;;;;5040429;28;20041;-65
2023/05/26 04:11:40;;;;;;;19.60;5.80;;;7.00;99.90;;;;;;5056569;28;20050;-64
2023/05/26 04:14:06;;;;;;;27.73;6.07;;;7.10;99.90;;;;;;5050878;28;20044;-65
2023/05/26 04:16:32;;;;;;;22.20;5.00;;;7.10;99.90;;;;;;5042398;28;20037;-65
2023/05/26 04:18:58;;;;;;;24.42;5.40;;;7.10;99.90;;;;;;5053171;28;20033;-65
2023/05/26 04:21:24;;;;;;;23.90;5.95;;;7.10;99.90;;;;;;5051054;28;20086;-65
2023/05/26 04:23:52;;;;;;;21.98;5.38;;;7.20;99.90;;;;;;5054154;28;20033;-65
2023/05/26 04:26:18;;;;;;;24.48;6.25;;;7.20;99.90;;;;;;5052173;28;20090;-65
2023/05/26 04:28:44;;;;;;;26.33;4.97;;;7.20;99.90;;;;;;5071695;28;20043;-64
2023/05/26 04:31:10;;;;;;;25.98;5.80;;;7.20;99.90;;;;;;5068267;28;20037;-64
2023/05/26 04:33:40;;;;;;;27.42;5.93;;;7.20;99.90;;;;;;5051334;28;20041;-64
2023/05/26 04:36:08;;;;;;;25.67;5.28;;;7.20;99.90;;;;;;5035551;28;20099;-65
2023/05/26 04:38:41;;;;;;;23.02;5.85;;;7.30;99.90;;;;;;5056874;28;20037;-65
2023/05/26 04:41:07;;;;;;;29.90;5.38;;;7.30;99.90;;;;;;5035924;28;20084;-64
2023/05/26 04:43:35;;;;;;;20.33;5.60;;;7.30;99.90;;;;;;5066369;28;20060;-65
2023/05/26 04:46:02;;;;;;;25.38;5.88;;;7.40;99.90;;;;;;5035532;28;20041;-65
2023/05/26 04:48:28;;;;;;;28.23;6.63;;;7.40;99.90;;;;;;5052693;28;20066;-64
2023/05/26 04:50:54;;;;;;;22.60;4.97;;;7.40;99.90;;;;;;5043364;28;20657;-65
2023/05/26 04:53:20;;;;;;;21.83;5.28;;;7.50;99.90;;;;;;5047564;28;20053;-65
2023/05/26 04:55:47;;;;;;;24.83;5.72;;;7.60;99.90;;;;;;5032135;28;20048;-65
2023/05/26 04:58:13;;;;;;;27.98;5.70;;;7.60;99.90;;;;;;5057794;28;20115;-64
2023/05/26 05:00:38;;;;;;;29.13;6.60;;;7.70;99.90;;;;;;5063585;28;20094;-65
2023/05/26 05:03:04;;;;;;;22.13;5.95;;;7.80;99.90;;;;;;5051262;28;20394;-65
2023/05/26 05:05:30;;;;;;;26.17;6.03;;;7.80;99.90;;;;;;5066044;28;20432;-65
2023/05/26 05:07:56;;;;;;;27.75;6.05;;;7.90;99.90;;;;;;5051209;28;20098;-65
2023/05/26 05:10:21;;;;;;;28.13;6.20;;;8.00;99.90;;;;;;5043133;28;20375;-65
2023/05/26 05:12:47;;;;;;;25.42;5.00;;;8.00;99.90;;;;;;5050237;28;20055;-63
2023/05/26 05:15:13;;;;;;;22.10;5.85;;;8.10;99.90;;;;;;5062052;28;20097;-63
2023/05/26 05:17:38;;;;;;;27.13;5.25;;;8.20;99.90;;;;;;5051499;28;20075;-63
2023/05/26 05:20:06;;;;;;;18.98;5.20;;;8.30;99.90;;;;;;5050857;28;20072;-63
2023/05/26 05:22:32;;;;;;;32.20;6.45;;;8.40;99.90;;;;;;5051627;28;20037;-63
2023/05/26 05:24:58;;;;;;;27.35;6.22;;;8.50;99.90;;;;;;5033314;28;20487;-63
2023/05/26 05:27:23;;;;;;;24.58;4.93;;;8.50;99.90;;;;;;5050991;28;20036;-63
2023/05/26 05:29:49;;;;;;;25.25;6.03;;;8.60;99.90;;;;;;5051466;28;20087;-63
2023/05/26 05:32:14;;;;;;;27.13;5.90;;;8.70;99.90;;;;;;5056839;28;20098;-63
2023/05/26 05:34:40;;;;;;;24.17;5.85;;;8.80;99.90;;;;;;5044606;28;20060;-63
2023/05/26 05:37:06;;;;;;;22.15;5.50;;;8.90;99.90;;;;;;5069757;28;20051;-63
2023/05/26 05:39:31;;;;;;;28.35;6.28;;;9.00;99.90;;;;;;5069009;28;20037;-63
2023/05/26 05:41:57;;;;;;;29.02;5.72;;;9.10;99.90;;;;;;5058673;28;20071;-63
2023/05/26 05:44:22;;;;;;;22.70;5.22;;;9.20;99.90;;;;;;5041899;28;20042;-63
2023/05/26 05:46:48;;;;;;;25.00;5.85;;;9.30;99.90;;;;;;5047905;28;20520;-63
2023/05/26 05:49:13;;;;;;;24.80;5.30;;;9.40;99.90;;;;;;5060528;28;20028;-63
2023/05/26 05:51:39;;;;;;;23.73;5.10;;;9.50;99.90;;;;;;5069352;28;20032;-63
2023/05/26 05:54:05;;;;;;;27.33;5.28;;;9.50;99.90;;;;;;5056721;28;20168;-63
2023/05/26 05:56:31;;;;;;;24.70;4.90;;;9.60;99.90;;;;;;5071702;28;20410;-63
2023/05/26 05:58:56;;;;;;;25.15;5.00;;;9.70;99.90;;;;;;5052808;28;20029;-63
2023/05/26 06:01:22;;;;;;;24.10;5.32;;;9.70;99.90;;;;;;5055761;28;20037;-63
2023/05/26 06:03:47;;;;;;;29.40;5.20;;;9.80;99.90;;;;;;5062426;28;20486;-63
2023/05/26 06:06:13;;;;;;;31.25;5.20;;;10.00;99.90;;;;;;5054208;28;20036;-63
2023/05/26 06:08:39;;;;;;;33.35;5.47;;;10.10;99.90;;;;;;5063229;28;20037;-63
2023/05/26 06:11:05;;;;;;;30.15;5.78;;;10.20;99.90;;;;;;5064562;28;20052;-63
2023/05/26 06:13:30;;;;;;;18.73;4.75;;;10.30;99.90;;;;;;5052913;28;20045;-63
2023/05/26 06:15:56;;;;;;;31.10;5.30;;;10.40;99.90;;;;;;5069176;28;20041;-63
2023/05/26 06:18:21;;;;;;;25.20;4.65;;;10.50;99.90;;;;;;5056580;28;20043;-63
2023/05/26 06:20:47;;;;;;;26.88;4.65;;;10.50;99.90;;;;;;5038324;28;20076;-63
2023/05/26 06:23:13;;;;;;;25.80;5.13;;;10.60;99.90;;;;;;5054555;28;20056;-63
2023/05/26 06:25:39;;;;;;;25.20;4.25;;;10.60;99.90;;;;;;5060615;28;20086;-63
2023/05/26 06:28:04;;;;;;;28.75;5.25;;;10.60;99.90;;;;;;5048456;28;20037;-63
2023/05/26 06:30:30;;;;;;;22.85;4.43;;;10.70;99.90;;;;;;5067232;28;20056;-64
2023/05/26 06:32:55;;;;;;;20.77;4.50;;;10.80;99.90;;;;;;5063433;28;20041;-63
2023/05/26 06:35:24;;;;;;;22.50;4.20;;;10.80;99.90;;;;;;5062557;28;20065;-64
2023/05/26 06:37:50;;;;;;;19.65;4.00;;;10.80;99.90;;;;;;5036437;28;20097;-64
2023/05/26 06:40:16;;;;;;;21.92;4.70;;;10.80;99.90;;;;;;5074170;28;20431;-63
2023/05/26 06:42:41;;;;;;;25.83;4.93;;;10.80;99.90;;;;;;5046889;28;20038;-63
2023/05/26 06:45:07;;;;;;;24.02;5.07;;;10.90;99.90;;;;;;5056745;28;20033;-63
2023/05/26 06:47:33;;;;;;;22.33;4.57;;;11.00;99.90;;;;;;5073948;28;20048;-63
2023/05/26 06:49:58;;;;;;;20.98;4.72;;;11.00;99.90;;;;;;5073425;28;20048;-64
2023/05/26 06:52:24;;;;;;;19.60;4.63;;;11.10;99.90;;;;;;5042946;28;20060;-63
2023/05/26 06:54:49;;;;;;;19.83;4.50;;;11.00;99.90;;;;;;5044957;28;20380;-63
2023/05/26 06:57:16;;;;;;;20.73;4.25;;;11.00;99.90;;;;;;5061666;28;20041;-63
2023/05/26 06:59:42;;;;;;;22.40;5.38;;;10.90;99.90;;;;;;5054251;28;20479;-64
2023/05/26 07:02:08;;;;;;;23.90;4.75;;;10.90;99.90;;;;;;5053946;28;20040;-63
2023/05/26 07:04:33;;;;;;;23.30;4.85;;;10.90;99.90;;;;;;5053642;28;20037;-64
2023/05/26 07:06:59;;;;;;;18.75;4.43;;;10.90;99.90;;;;;;5053710;28;20552;-64
2023/05/26 07:09:24;;;;;;;23.73;5.22;;;10.90;99.90;;;;;;5049628;28;20045;-64
2023/05/26 07:11:50;;;;;;;27.05;4.70;;;10.90;99.90;;;;;;5040278;28;20100;-64
2023/05/26 07:14:16;;;;;;;16.48;4.63;;;11.00;99.90;;;;;;5033629;28;20566;-64
2023/05/26 07:16:41;;;;;;;23.35;5.40;;;11.10;99.90;;;;;;5035680;28;20029;-64
2023/05/26 07:19:07;;;;;;;21.70;5.63;;;11.30;99.90;;;;;;5053081;28;20037;-64
2023/05/26 07:21:32;;;;;;;19.40;4.38;;;11.50;99.90;;;;;;5053071;28;20048;-64
2023/05/26 07:23:58;;;;;;;19.40;5.43;;;11.80;99.90;;;;;;5051728;28;20079;-63
2023/05/26 07:26:24;;;;;;;22.02;4.28;;;12.10;99.90;;;;;;5033591;28;20034;-64
2023/05/26 07:28:51;;;;;;;24.35;4.65;;;12.40;99.90;;;;;;5051727;28;20137;-63
2023/05/26 07:31:17;;;;;;;19.10;4.55;;;12.60;99.90;;;;;;5059806;28;20064;-63
2023/05/26 07:33:43;;;;;;;18.45;5.20;;;12.70;99.90;;;;;;5038039;28;20049;-64
2023/05/26 07:36:09;;;;;;;19.90;4.25;;;12.80;99.90;;;;;;5052172;28;20028;-63
2023/05/26 07:38:34;;;;;;;25.75;4.70;;;13.00;99.90;;;;;;5061219;28;20041;-64
2023/05/26 07:41:00;;;;;;;21.27;4.50;;;13.20;99.90;;;;;;5059876;28;20040;-64
2023/05/26 07:43:25;;;;;;;20.50;3.85;;;13.30;99.90;;;;;;5039330;28;20038;-64
2023/05/26 07:45:51;;;;;;;17.95;4.93;;;13.50;99.90;;;;;;5047866;28;20028;-64
2023/05/26 07:48:16;;;;;;;21.92;4.10;;;13.50;99.90;;;;;;5041061;28;20073;-64
2023/05/26 07:50:42;;;;;;;17.05;3.90;;;13.50;99.90;;;;;;5040637;28;20039;-63
2023/05/26 07:53:08;;;;;;;15.93;3.90;;;13.50;99.90;;;;;;5066429;28;20769;-63
2023/05/26 07:55:33;;;;;;;17.77;3.88;;;13.50;99.90;;;;;;5045993;28;20041;-63
2023/05/26 07:58:00;;;;;;;24.60;4.78;;;13.40;99.90;;;;;;5055512;28;20033;-63
2023/05/26 08:00:25;;;;;;;20.17;3.70;;;13.40;99.90;;;;;;5057472;28;20637;-63
2023/05/26 08:02:52;;;;;;;20.77;3.88;;;13.30;99.90;;;;;;5042888;28;20093;-64
2023/05/26 08:05:17;;;;;;;18.13;3.88;;;13.10;99.90;;;;;;5053553;28;20037;-63
2023/05/26 08:07:43;;;;;;;19.52;4.18;;;12.90;99.90;;;;;;5041572;28;20087;-63
2023/05/26 08:10:09;;;;;;;17.35;4.35;;;12.80;99.90;;;;;;5065851;28;20041;-64
2023/05/26 08:12:35;;;;;;;16.85;5.03;;;12.80;99.90;;;;;;5061625;28;20140;-63
2023/05/26 08:15:04;;;;;;;19.42;4.13;;;12.70;99.90;;;;;;5052306;28;20108;-63
2023/05/26 08:17:30;;;;;;;22.58;5.13;;;12.70;99.90;;;;;;5028973;28;20483;-63
2023/05/26 08:19:56;;;;;;;15.02;3.38;;;12.90;99.90;;;;;;5053867;28;20045;-64
2023/05/26 08:22:21;;;;;;;21.10;4.85;;;13.10;99.90;;;;;;5022172;28;20041;-64
2023/05/26 08:24:47;;;;;;;17.73;4.30;;;13.20;99.90;;;;;;5018934;28;20072;-63
2023/05/26 08:29:46;;;;;;;19.20;4.13;;;13.60;99.90;;;;;;5047403;28;20529;-64
2023/05/26 08:32:12;;;;;;;17.35;4.00;;;13.80;99.90;;;;;;5051718;28;20037;-63
2023/05/26 08:34:37;;;;;;;18.35;3.92;;;14.00;99.90;;;;;;5052449;28;20047;-63
2023/05/26 08:37:03;;;;;;;19.70;4.68;;;13.90;99.90;;;;;;5057746;28;20044;-60
2023/05/26 08:39:28;;;;;;;14.50;3.90;;;14.00;99.90;;;;;;5056988;28;20044;-60
2023/05/26 08:41:59;;;;;;;19.35;4.90;;;14.20;99.90;;;;;;5054265;28;20040;-61
2023/05/26 08:44:25;;;;;;;;;;;14.40;99.90;;;;;;5041989;28;20060;-66
2023/05/26 08:46:55;;;;;;;16.38;4.20;;;14.50;99.90;;;;;;5059745;28;20479;-67
2023/05/26 08:49:22;;;;;;;16.65;4.07;;;14.50;99.90;;;;;;5060001;28;20037;-67
2023/05/26 08:51:58;;;;;;;17.00;4.20;;;14.50;99.90;;;;;;5055795;28;20051;-67
2023/05/26 08:54:24;;;;;;;22.15;4.00;;;14.50;99.90;;;;;;5052777;28;20036;-66
2023/05/26 08:56:50;;;;;;;17.52;4.60;;;14.70;99.90;;;;;;5041822;28;20059;-67
2023/05/26 08:59:18;;;;;;;17.60;4.03;;;14.90;99.90;;;;;;5039628;28;20047;-66
2023/05/26 09:01:43;;;;;;;17.38;4.50;;;15.00;99.90;;;;;;5051337;28;20069;-67
2023/05/26 09:04:09;;;;;;;13.70;3.97;;;15.20;99.90;;;;;;5038674;28;20076;-67
2023/05/26 09:06:36;;;;;;;16.38;3.70;;;15.40;99.90;;;;;;5051821;28;20079;-66
2023/05/26 09:09:04;;;;;;;16.45;4.00;;;15.50;99.90;;;;;;5034330;28;20049;-66
2023/05/26 09:11:30;;;;;;;26.08;3.90;;;15.60;99.90;;;;;;5057785;28;20044;-66
2023/05/26 09:13:56;;;;;;;16.65;3.70;;;15.80;99.90;;;;;;5060442;28;20101;-66
2023/05/26 09:16:26;;;;;;;14.98;3.95;;;15.90;99.90;;;;;;5053078;28;20040;-66
2023/05/26 09:18:58;;;;;;;14.43;4.05;;;15.90;99.90;;;;;;5054332;28;20505;-66
2023/05/26 09:21:26;;;;;;;17.33;4.47;;;15.90;99.90;;;;;;5051152;28;20120;-66
2023/05/26 09:23:57;;;;;;;13.15;4.05;;;15.90;99.90;;;;;;5051642;28;20095;-66
2023/05/26 09:26:34;;;;;;;16.30;3.60;;;16.00;99.90;;;;;;5033760;28;20045;-66
2023/05/26 09:29:02;;;;;;;16.52;3.90;;;16.00;99.90;;;;;;5048427;28;20040;-66
2023/05/26 09:31:48;;;;;;;11.02;3.35;;;15.90;99.60;;;;;;5051446;28;20091;-66
2023/05/26 09:34:15;;;;;;;14.63;3.22;;;15.80;98.00;;;;;;5051067;28;20066;-66
2023/05/26 09:36:41;;;;;;;12.90;4.00;;;15.90;98.40;;;;;;5055488;28;20627;-66
2023/05/26 09:39:13;;;;;;;14.98;3.53;;;15.80;97.90;;;;;;5039867;28;20054;-67
2023/05/26 09:41:39;;;;;;;12.68;4.28;;;15.80;97.20;;;;;;5038805;28;20135;-67
2023/05/26 09:44:11;;;;;;;12.02;2.75;;;16.00;97.50;;;;;;5054840;28;20036;-67
2023/05/26 09:46:37;;;;;;;14.75;3.47;;;16.10;95.60;;;;;;5058027;28;20040;-67
2023/05/26 09:49:17;;;;;;;14.85;3.47;;;16.00;94.30;;;;;;5052484;28;20033;-67
2023/05/26 09:51:48;;;;;;;15.40;3.55;;;16.10;93.90;;;;;;5055323;28;20537;-67
2023/05/26 09:54:13;;;;;;;16.35;3.67;;;16.20;95.20;;;;;;5052118;28;20041;-67
2023/05/26 09:57:09;;;;;;;11.57;3.00;;;16.30;94.30;;;;;;5064333;28;20506;-66
2023/05/26 09:59:38;;;;;;;10.60;2.63;;;16.20;91.80;;;;;;5049184;28;20041;-66
2023/05/26 10:02:20;;;;;;;14.07;3.28;;;16.30;93.30;;;;;;5044373;28;20037;-66
2023/05/26 10:04:47;;;;;;;14.05;3.47;;;16.40;92.70;;;;;;5048066;28;20072;-67
2023/05/26 10:07:15;;;;;;;14.80;3.30;;;16.50;91.70;;;;;;5040777;28;20045;-66
2023/05/26 10:09:41;;;;;;;13.90;3.00;;;16.60;91.60;;;;;;5054964;28;20125;-66
2023/05/26 10:12:08;;;;;;;17.23;3.13;;;16.50;90.70;;;;;;5055013;28;20045;-67
2023/05/26 10:14:35;;;;;;;10.63;3.00;;;16.50;90.60;;;;;;5055195;28;20051;-66
2023/05/26 10:17:03;;;;;;;11.82;3.35;;;16.30;90.70;;;;;;5052230;28;20059;-67
2023/05/26 10:19:30;;;;;;;9.75;3.25;;;16.20;89.20;;;;;;5041168;28;20043;-68
2023/05/26 10:22:01;;;;;;;12.90;3.08;;;16.40;90.60;;;;;;5056059;28;20037;-66
2023/05/26 10:24:40;;;;;;;9.23;3.03;;;16.50;88.70;;;;;;5053249;28;20036;-65
2023/05/26 10:27:29;;;;;;;9.57;2.70;;;16.50;86.00;;;;;;5054275;28;20486;-66
2023/05/26 10:30:11;;;;;;;11.13;2.45;;;16.50;86.80;;;;;;5057786;28;20041;-66
2023/05/26 10:33:12;;;;;;;13.15;3.25;;;16.30;85.70;;;;;;5058365;28;20098;-66
2023/05/26 10:35:51;;;;;;;11.27;2.60;;;16.30;86.20;;;;;;5048759;28;20111;-67
2023/05/26 10:38:17;;;;;;;12.70;3.15;;;16.30;85.60;;;;;;5055006;28;20094;-66
2023/05/26 10:40:44;;;;;;;11.15;3.28;;;16.40;84.10;;;;;;5066695;28;20037;-67
2023/05/26 10:43:20;;;;;;;10.93;2.80;;;16.50;85.30;;;;;;5054772;28;20051;-66
2023/05/26 10:46:06;;;;;;;13.93;3.00;;;16.60;85.30;;;;;;5053874;28;20040;-66
2023/05/26 10:48:37;;;;;;;12.48;3.03;;;16.70;80.80;;;;;;5052232;28;20056;-66
2023/05/26 10:51:03;;;;;;;8.07;2.53;;;16.70;80.70;;;;;;5055562;28;20094;-66
2023/05/26 10:53:34;;;;;;;11.32;2.88;;;16.70;80.20;;;;;;5059214;28;20409;-66
2023/05/26 10:56:03;;;;;;;12.98;3.05;;;16.70;80.40;;;;;;5052880;28;20510;-66
2023/05/26 10:58:32;;;;;;;10.65;2.90;;;16.80;81.20;;;;;;5054392;28;20044;-66
2023/05/26 11:01:00;;;;;;;8.95;2.65;;;16.90;82.10;;;;;;5035648;28;20045;-66
2023/05/26 11:03:33;;;;;;;12.93;3.90;;;17.00;81.00;;;;;;5039680;28;20044;-66
2023/05/26 11:05:59;;;;;;;13.75;3.13;;;17.20;80.80;;;;;;5067911;28;20077;-66
2023/05/26 11:08:25;;;;;;;13.27;3.22;;;17.10;80.50;;;;;;5058199;28;20025;-66
2023/05/26 11:11:02;;;;;;;14.02;3.42;;;17.00;81.00;;;;;;5052343;28;20053;-66
2023/05/26 11:13:49;;;;;;;18.65;4.00;;;17.00;80.60;;;;;;5054372;28;20045;-66
2023/05/26 11:16:20;;;;;;;8.77;2.85;;;17.20;80.40;;;;;;5045082;28;20372;-66
2023/05/26 11:18:48;;;;;;;10.88;2.75;;;17.30;80.40;;;;;;5053984;28;20514;-66
2023/05/26 11:21:14;;;;;;;11.82;3.40;;;17.30;78.60;;;;;;5048712;28;20032;-67
2023/05/26 11:23:41;;;;;;;7.82;2.63;;;17.20;76.70;;;;;;5070826;28;20116;-61
2023/05/26 11:26:14;;;;;;;15.15;3.40;;;17.10;78.20;;;;;;5052657;28;20139;-61
2023/05/26 11:28:44;;;;;;;11.63;3.50;;;17.30;77.90;;;;;;5053281;28;20037;-62
2023/05/26 11:31:15;;;;;;;10.02;2.60;;;17.50;78.10;;;;;;5059008;28;20486;-61
2023/05/26 11:33:43;;;;;;;14.23;3.53;;;17.60;78.10;;;;;;5034250;28;20098;-61
2023/05/26 11:36:14;;;;;;;11.05;3.10;;;17.60;76.50;;;;;;5057036;28;20040;-61
2023/05/26 11:38:41;;;;;;;20.45;4.20;;;17.60;76.40;;;;;;5054841;28;20033;-61
2023/05/26 11:41:12;;;;;;;10.68;3.50;;;17.60;77.00;;;;;;5051941;28;20045;-61
2023/05/26 11:43:37;;;;;;;;;;;17.60;77.40;;;;;;5053239;28;20033;-61
2023/05/26 11:46:08;;;;;;;10.82;3.60;;;17.50;75.90;;;;;;5053151;28;19917;-62
2023/05/26 11:48:35;;;;;;;;;;;17.40;75.90;;;;;;5059054;28;20103;-61
2023/05/26 11:51:13;;;;;;;14.57;3.53;;;17.40;76.20;;;;;;5064174;28;19959;-61
2023/05/26 11:53:40;;;;;;;13.70;3.85;;;17.50;75.60;;;;;;5066945;28;20040;-61
2023/05/26 11:56:14;;;;;;;12.57;3.15;;;17.50;76.20;;;;;;5053144;28;20397;-61
2023/05/26 11:58:54;;;;;;;14.95;3.55;;;17.50;76.70;;;;;;5053152;28;20072;-61
2023/05/26 12:01:25;;;;;;;13.23;3.30;;;17.50;74.40;;;;;;5055624;28;20060;-61
2023/05/26 12:03:51;;;;;;;10.38;3.42;;;17.50;75.20;;;;;;5057163;28;20043;-61
2023/05/26 12:06:18;;;;;;;14.73;3.88;;;17.60;75.50;;;;;;5038241;28;20048;-61
2023/05/26 12:08:44;;;;;;;12.20;3.40;;;17.50;77.00;;;;;;5053161;28;20044;-61
2023/05/26 12:11:18;;;;;;;14.82;2.78;;;17.60;76.80;;;;;;5058489;28;20036;-61
2023/05/26 12:13:44;;;;;;;11.10;3.47;;;17.40;76.70;;;;;;5037882;28;20068;-61
2023/05/26 12:16:37;;;;;;;12.15;3.00;;;17.50;76.30;;;;;;5053573;28;20063;-61
2023/05/26 12:19:05;;;;;;;16.67;3.72;;;17.60;76.30;;;;;;5052348;28;20525;-61
2023/05/26 12:21:32;;;;;;;11.23;3.50;;;17.60;77.70;;;;;;5051118;28;20049;-61
2023/05/26 12:23:58;;;;;;;20.52;4.00;;;17.70;78.70;;;;;;5056043;28;20478;-61
2023/05/26 12:26:30;;;;;;;10.23;2.28;;;17.70;78.20;;;;;;5056602;28;20037;-61
2023/05/26 12:29:06;;;;;;;11.52;3.17;;;17.60;77.40;;;;;;5050113;28;20033;-61
2023/05/26 12:31:36;;;;;;;10.85;3.13;;;17.50;75.40;;;;;;5052505;28;20045;-61
2023/05/26 12:34:01;;;;;;;9.57;2.70;;;17.40;78.00;;;;;;5052587;28;20079;-61
2023/05/26 12:36:27;;;;;;;12.82;3.30;;;17.40;79.30;;;;;;5064002;28;20493;-61
2023/05/26 12:38:52;;;;;;;12.02;3.65;;;17.40;79.70;;;;;;5071816;28;20043;-61
2023/05/26 12:41:18;;;;;;;15.45;4.03;;;17.30;80.30;;;;;;5071683;28;20029;-61
2023/05/26 12:43:43;;;;;;;15.77;3.13;;;17.40;78.90;;;;;;5071478;28;20096;-61
2023/05/26 12:46:09;;;;;;;16.45;4.13;;;17.30;78.40;;;;;;5071907;28;20037;-61
2023/05/26 12:48:35;;;;;;;20.05;3.97;;;17.30;80.00;;;;;;5064020;28;20033;-61
2023/05/26 12:51:01;;;;;;;14.88;3.53;;;17.30;80.70;;;;;;5057074;28;20508;-62